EJU3701 LIEO-LIMC
Flight info
| Callsign | EJU3701 |
|---|---|
| Flight time | 0h 55m |
| Altitude | 30000 |
| Route | OKIVA P980 DIKEL DCT RATAP DCT MEGER DCT ANAKI P860 DEVOX |
| Aircraft | A320/M-SDE2E3FGHIJ1RWXYZ/LB1 |
Departure
| Time | 2026-05-04 18:33 |
|---|---|
| Airport | Olbia Costa Smeralda Airport (LIEO) |
Arrival
| Time | 2026-05-04 19:28 |
|---|---|
| Airport | Milan Malpensa International Airport (LIMC) |
| Time | Latitude | Longitude | Altitude | Speed | Heading |
|---|---|---|---|---|---|
| 2026-05-04 18:23 | 40.90310 | 9.51773 | 34 ft | 0 kts | 23° |
| 2026-05-04 18:29 | 40.90316 | 9.51787 | 34 ft | 4 kts | 80° |
| 2026-05-04 18:29 | 40.90269 | 9.51800 | 34 ft | 12 kts | 187° |
| 2026-05-04 18:29 | 40.90190 | 9.51702 | 34 ft | 18 kts | 235° |
| 2026-05-04 18:29 | 40.90113 | 9.51554 | 34 ft | 18 kts | 236° |
| 2026-05-04 18:30 | 40.89939 | 9.51501 | 34 ft | 19 kts | 213° |
| 2026-05-04 18:30 | 40.89856 | 9.51353 | 34 ft | 22 kts | 235° |
| 2026-05-04 18:30 | 40.89765 | 9.51178 | 34 ft | 24 kts | 235° |
| 2026-05-04 18:31 | 40.89663 | 9.50984 | 34 ft | 27 kts | 235° |
| 2026-05-04 18:31 | 40.89552 | 9.50772 | 34 ft | 29 kts | 235° |
| 2026-05-04 18:31 | 40.89437 | 9.50554 | 34 ft | 23 kts | 236° |
| 2026-05-04 18:31 | 40.89363 | 9.50444 | 34 ft | 16 kts | 201° |
| 2026-05-04 18:32 | 40.89275 | 9.50512 | 34 ft | 18 kts | 99° |
| 2026-05-04 18:32 | 40.89296 | 9.50671 | 34 ft | 19 kts | 53° |
| 2026-05-04 18:32 | 40.89424 | 9.50917 | 33 ft | 62 kts | 56° |
| 2026-05-04 18:32 | 40.89799 | 9.51631 | 33 ft | 125 kts | 55° |
| 2026-05-04 18:33 | 40.90386 | 9.52764 | 102 ft | 167 kts | 55° |
| 2026-05-04 18:33 | 40.91031 | 9.54028 | 764 ft | 166 kts | 57° |
| 2026-05-04 18:33 | 40.91703 | 9.55314 | 1272 ft | 179 kts | 57° |
| 2026-05-04 18:33 | 40.92465 | 9.56759 | 1567 ft | 203 kts | 57° |
| 2026-05-04 18:34 | 40.93331 | 9.58376 | 1856 ft | 229 kts | 56° |
| 2026-05-04 18:34 | 40.94288 | 9.60150 | 2448 ft | 243 kts | 55° |
| 2026-05-04 18:34 | 40.95281 | 9.62004 | 3135 ft | 252 kts | 56° |
| 2026-05-04 18:34 | 40.96314 | 9.63925 | 3873 ft | 259 kts | 55° |
| 2026-05-04 18:35 | 40.97544 | 9.65673 | 4653 ft | 264 kts | 30° |
| 2026-05-04 18:35 | 40.99285 | 9.66356 | 5423 ft | 266 kts | 360° |
| 2026-05-04 18:35 | 41.01094 | 9.65831 | 5882 ft | 276 kts | 327° |
| 2026-05-04 18:35 | 41.02706 | 9.64425 | 6656 ft | 280 kts | 321° |
| 2026-05-04 18:36 | 41.04322 | 9.62946 | 7440 ft | 284 kts | 321° |
| 2026-05-04 18:36 | 41.05956 | 9.61453 | 8272 ft | 287 kts | 321° |
| 2026-05-04 18:36 | 41.07598 | 9.59920 | 9081 ft | 290 kts | 317° |
| 2026-05-04 18:36 | 41.08972 | 9.58000 | 9937 ft | 287 kts | 302° |
| 2026-05-04 18:37 | 41.10131 | 9.55805 | 10454 ft | 301 kts | 301° |
| 2026-05-04 18:37 | 41.11377 | 9.53454 | 10776 ft | 320 kts | 302° |
| 2026-05-04 18:37 | 41.12687 | 9.51023 | 11394 ft | 327 kts | 302° |
| 2026-05-04 18:37 | 41.14032 | 9.48566 | 12122 ft | 331 kts | 303° |
| 2026-05-04 18:38 | 41.15395 | 9.46091 | 12889 ft | 334 kts | 303° |
| 2026-05-04 18:38 | 41.16775 | 9.43583 | 13615 ft | 337 kts | 302° |
| 2026-05-04 18:38 | 41.18162 | 9.41053 | 14281 ft | 340 kts | 302° |
| 2026-05-04 18:38 | 41.19556 | 9.38498 | 14901 ft | 343 kts | 302° |
| 2026-05-04 18:39 | 41.20960 | 9.35914 | 15510 ft | 347 kts | 302° |
| 2026-05-04 18:39 | 41.22375 | 9.33302 | 16115 ft | 350 kts | 302° |
| 2026-05-04 18:39 | 41.23765 | 9.30628 | 16715 ft | 353 kts | 300° |
| 2026-05-04 18:39 | 41.25115 | 9.27881 | 17336 ft | 356 kts | 299° |
| 2026-05-04 18:40 | 41.26447 | 9.25085 | 17916 ft | 360 kts | 299° |
| 2026-05-04 18:40 | 41.27781 | 9.22255 | 18482 ft | 363 kts | 299° |
| 2026-05-04 18:40 | 41.29129 | 9.19399 | 18998 ft | 366 kts | 299° |
| 2026-05-04 18:40 | 41.30505 | 9.16592 | 19520 ft | 370 kts | 304° |
| 2026-05-04 18:41 | 41.32296 | 9.14101 | 20051 ft | 377 kts | 318° |
| 2026-05-04 18:41 | 41.34533 | 9.12220 | 20578 ft | 385 kts | 332° |
| 2026-05-04 18:41 | 41.37095 | 9.11100 | 21088 ft | 393 kts | 346° |
| 2026-05-04 18:41 | 41.39853 | 9.10840 | 21583 ft | 401 kts | 358° |
| 2026-05-04 18:42 | 41.42648 | 9.10941 | 22079 ft | 403 kts | 358° |
| 2026-05-04 18:42 | 41.45461 | 9.11042 | 22606 ft | 405 kts | 358° |
| 2026-05-04 18:42 | 41.48289 | 9.11143 | 23111 ft | 408 kts | 358° |
| 2026-05-04 18:42 | 41.51133 | 9.11241 | 23605 ft | 410 kts | 357° |
| 2026-05-04 18:43 | 41.53990 | 9.11337 | 24006 ft | 412 kts | 357° |
| 2026-05-04 18:43 | 41.56867 | 9.11406 | 24394 ft | 414 kts | 356° |
| 2026-05-04 18:43 | 41.59755 | 9.11412 | 24753 ft | 416 kts | 355° |
| 2026-05-04 18:43 | 41.62661 | 9.11378 | 25150 ft | 419 kts | 354° |
| 2026-05-04 18:44 | 41.65582 | 9.11321 | 25511 ft | 421 kts | 354° |
| 2026-05-04 18:44 | 41.67531 | 9.11280 | 25754 ft | 423 kts | 354° |
| 2026-05-04 18:44 | 41.71482 | 9.11211 | 26245 ft | 427 kts | 354° |
| 2026-05-04 18:44 | 41.74456 | 9.11178 | 26602 ft | 429 kts | 354° |
| 2026-05-04 18:45 | 41.77455 | 9.11156 | 26975 ft | 431 kts | 353° |
| 2026-05-04 18:45 | 41.80461 | 9.11138 | 27304 ft | 433 kts | 353° |
| 2026-05-04 18:45 | 41.83486 | 9.11121 | 27652 ft | 436 kts | 353° |
| 2026-05-04 18:45 | 41.86531 | 9.11103 | 27982 ft | 439 kts | 353° |
| 2026-05-04 18:46 | 41.89593 | 9.11084 | 28321 ft | 441 kts | 353° |
| 2026-05-04 18:46 | 41.92667 | 9.11065 | 28660 ft | 443 kts | 353° |
| 2026-05-04 18:46 | 41.95760 | 9.11042 | 28981 ft | 445 kts | 353° |
| 2026-05-04 18:46 | 41.98867 | 9.11017 | 29323 ft | 448 kts | 353° |
| 2026-05-04 18:47 | 42.01950 | 9.10992 | 29661 ft | 450 kts | 352° |
| 2026-05-04 18:47 | 42.05089 | 9.10966 | 29965 ft | 452 kts | 353° |
| 2026-05-04 18:47 | 42.08228 | 9.10938 | 30055 ft | 446 kts | 353° |
| 2026-05-04 18:47 | 42.11281 | 9.10921 | 30052 ft | 434 kts | 353° |
| 2026-05-04 18:48 | 42.14282 | 9.10908 | 30042 ft | 429 kts | 352° |
| 2026-05-04 18:48 | 42.20235 | 9.10868 | 30058 ft | 428 kts | 352° |
| 2026-05-04 18:49 | 42.26196 | 9.10811 | 30082 ft | 429 kts | 353° |
| 2026-05-04 18:49 | 42.32175 | 9.10762 | 30045 ft | 431 kts | 353° |
| 2026-05-04 18:50 | 42.38172 | 9.10718 | 30035 ft | 431 kts | 353° |
| 2026-05-04 18:50 | 42.44167 | 9.10673 | 30031 ft | 430 kts | 353° |
| 2026-05-04 18:51 | 42.50165 | 9.10621 | 30031 ft | 430 kts | 353° |
| 2026-05-04 18:51 | 42.56146 | 9.10572 | 30021 ft | 430 kts | 353° |
| 2026-05-04 18:52 | 42.62124 | 9.10529 | 30018 ft | 430 kts | 353° |
| 2026-05-04 18:52 | 42.68103 | 9.10479 | 30038 ft | 430 kts | 353° |
| 2026-05-04 18:53 | 42.74103 | 9.10642 | 30031 ft | 434 kts | 358° |
| 2026-05-04 18:53 | 42.80122 | 9.11347 | 30033 ft | 434 kts | 358° |
| 2026-05-04 18:54 | 42.86146 | 9.12058 | 30035 ft | 434 kts | 358° |
| 2026-05-04 18:54 | 42.92164 | 9.12768 | 30049 ft | 434 kts | 358° |
| 2026-05-04 18:55 | 42.98170 | 9.13462 | 30047 ft | 433 kts | 358° |
| 2026-05-04 18:55 | 43.07167 | 9.14506 | 30051 ft | 432 kts | 358° |
| 2026-05-04 18:56 | 43.13164 | 9.15213 | 30040 ft | 432 kts | 358° |
| 2026-05-04 18:56 | 43.18148 | 9.15806 | 30036 ft | 433 kts | 358° |
| 2026-05-04 18:57 | 43.25121 | 9.16636 | 30033 ft | 433 kts | 358° |
| 2026-05-04 18:57 | 43.30142 | 9.17184 | 30047 ft | 429 kts | 354° |
| 2026-05-04 18:58 | 43.34019 | 9.16761 | 30049 ft | 418 kts | 342° |
| 2026-05-04 18:58 | 43.36800 | 9.15746 | 30046 ft | 410 kts | 333° |
| 2026-05-04 18:58 | 43.41269 | 9.13463 | 30043 ft | 409 kts | 333° |
| 2026-05-04 18:59 | 43.46600 | 9.10724 | 30039 ft | 409 kts | 333° |
| 2026-05-04 18:59 | 43.51924 | 9.07980 | 30054 ft | 409 kts | 333° |
| 2026-05-04 19:00 | 43.57276 | 9.05231 | 30038 ft | 411 kts | 333° |
| 2026-05-04 19:00 | 43.62637 | 9.02480 | 30035 ft | 412 kts | 333° |
| 2026-05-04 19:01 | 43.68004 | 8.99718 | 30056 ft | 412 kts | 334° |
| 2026-05-04 19:01 | 43.73338 | 8.96961 | 30061 ft | 412 kts | 334° |
| 2026-05-04 19:02 | 43.78704 | 8.94181 | 30053 ft | 411 kts | 334° |
| 2026-05-04 19:02 | 43.84065 | 8.91404 | 30041 ft | 411 kts | 334° |
| 2026-05-04 19:03 | 43.86723 | 8.90028 | 29761 ft | 403 kts | 334° |
| 2026-05-04 19:03 | 43.89324 | 8.88682 | 29497 ft | 396 kts | 334° |
| 2026-05-04 19:03 | 43.91896 | 8.87346 | 29219 ft | 393 kts | 334° |
| 2026-05-04 19:03 | 43.94451 | 8.86011 | 28943 ft | 392 kts | 334° |
| 2026-05-04 19:04 | 43.96992 | 8.84679 | 28677 ft | 390 kts | 334° |
| 2026-05-04 19:04 | 43.99530 | 8.83351 | 28408 ft | 389 kts | 334° |
| 2026-05-04 19:04 | 44.02054 | 8.82030 | 28140 ft | 387 kts | 334° |
| 2026-05-04 19:04 | 44.04573 | 8.80715 | 27878 ft | 386 kts | 334° |
| 2026-05-04 19:05 | 44.07085 | 8.79405 | 27614 ft | 385 kts | 335° |
| 2026-05-04 19:05 | 44.09586 | 8.78101 | 27374 ft | 383 kts | 334° |
| 2026-05-04 19:05 | 44.12074 | 8.76796 | 27112 ft | 382 kts | 334° |
| 2026-05-04 19:05 | 44.14552 | 8.75489 | 26866 ft | 379 kts | 334° |
| 2026-05-04 19:06 | 44.16999 | 8.74200 | 26475 ft | 375 kts | 334° |
| 2026-05-04 19:06 | 44.19485 | 8.73109 | 26033 ft | 376 kts | 343° |
| 2026-05-04 19:06 | 44.22093 | 8.72657 | 25600 ft | 379 kts | 355° |
| 2026-05-04 19:06 | 44.24735 | 8.72743 | 25157 ft | 379 kts | 358° |
| 2026-05-04 19:07 | 44.27367 | 8.72867 | 24693 ft | 378 kts | 359° |
| 2026-05-04 19:07 | 44.29995 | 8.72986 | 24249 ft | 378 kts | 359° |
| 2026-05-04 19:07 | 44.32621 | 8.73099 | 23783 ft | 377 kts | 359° |
| 2026-05-04 19:07 | 44.35242 | 8.73210 | 23265 ft | 377 kts | 359° |
| 2026-05-04 19:08 | 44.37855 | 8.73319 | 22799 ft | 374 kts | 359° |
| 2026-05-04 19:08 | 44.40451 | 8.73428 | 22354 ft | 372 kts | 359° |
| 2026-05-04 19:08 | 44.43034 | 8.73536 | 21897 ft | 371 kts | 359° |
| 2026-05-04 19:08 | 44.45603 | 8.73645 | 21447 ft | 369 kts | 359° |
| 2026-05-04 19:09 | 44.48166 | 8.73756 | 21018 ft | 367 kts | 359° |
| 2026-05-04 19:09 | 44.50715 | 8.73866 | 20578 ft | 366 kts | 359° |
| 2026-05-04 19:09 | 44.53257 | 8.73977 | 20133 ft | 365 kts | 359° |
| 2026-05-04 19:09 | 44.55800 | 8.74087 | 19703 ft | 365 kts | 359° |
| 2026-05-04 19:10 | 44.58330 | 8.74197 | 19272 ft | 363 kts | 359° |
| 2026-05-04 19:10 | 44.60856 | 8.74310 | 18841 ft | 363 kts | 359° |
| 2026-05-04 19:10 | 44.63378 | 8.74422 | 18410 ft | 362 kts | 359° |
| 2026-05-04 19:10 | 44.65892 | 8.74534 | 17950 ft | 361 kts | 359° |
| 2026-05-04 19:11 | 44.68395 | 8.74581 | 17534 ft | 357 kts | 353° |
| 2026-05-04 19:11 | 44.70796 | 8.74020 | 17349 ft | 343 kts | 340° |
| 2026-05-04 19:11 | 44.73018 | 8.72940 | 17074 ft | 336 kts | 336° |
| 2026-05-04 19:11 | 44.75212 | 8.71806 | 16684 ft | 335 kts | 336° |
| 2026-05-04 19:12 | 44.77393 | 8.70678 | 16323 ft | 334 kts | 336° |
| 2026-05-04 19:12 | 44.81734 | 8.68440 | 15636 ft | 330 kts | 336° |
| 2026-05-04 19:12 | 44.83884 | 8.67331 | 15296 ft | 329 kts | 336° |
| 2026-05-04 19:13 | 44.85998 | 8.66235 | 14969 ft | 327 kts | 336° |
| 2026-05-04 19:13 | 44.88124 | 8.65126 | 14651 ft | 325 kts | 336° |
| 2026-05-04 19:13 | 44.90239 | 8.64024 | 14334 ft | 323 kts | 336° |
| 2026-05-04 19:13 | 44.92344 | 8.62926 | 14014 ft | 322 kts | 336° |
| 2026-05-04 19:14 | 44.94439 | 8.61838 | 13669 ft | 320 kts | 336° |
| 2026-05-04 19:14 | 44.96527 | 8.60751 | 13295 ft | 319 kts | 337° |
| 2026-05-04 19:14 | 44.98605 | 8.59665 | 12919 ft | 319 kts | 337° |
| 2026-05-04 19:14 | 45.00704 | 8.58714 | 12662 ft | 316 kts | 346° |
| 2026-05-04 19:15 | 45.02855 | 8.58117 | 12323 ft | 314 kts | 347° |
| 2026-05-04 19:15 | 45.04998 | 8.57531 | 11969 ft | 314 kts | 347° |
| 2026-05-04 19:15 | 45.07141 | 8.56945 | 11606 ft | 313 kts | 347° |
| 2026-05-04 19:15 | 45.09278 | 8.56360 | 11246 ft | 313 kts | 348° |
| 2026-05-04 19:16 | 45.11415 | 8.55770 | 10889 ft | 312 kts | 348° |
| 2026-05-04 19:16 | 45.13546 | 8.55179 | 10539 ft | 312 kts | 348° |
| 2026-05-04 19:16 | 45.15673 | 8.54588 | 10161 ft | 311 kts | 348° |
| 2026-05-04 19:16 | 45.17797 | 8.53998 | 9788 ft | 311 kts | 348° |
| 2026-05-04 19:17 | 45.19912 | 8.53411 | 9506 ft | 306 kts | 348° |
| 2026-05-04 19:17 | 45.21966 | 8.52839 | 9372 ft | 296 kts | 348° |
| 2026-05-04 19:17 | 45.23954 | 8.52287 | 9208 ft | 287 kts | 348° |
| 2026-05-04 19:17 | 45.25902 | 8.51748 | 8923 ft | 284 kts | 349° |
| 2026-05-04 19:18 | 45.27818 | 8.51214 | 8762 ft | 275 kts | 348° |
| 2026-05-04 19:18 | 45.29674 | 8.50772 | 8574 ft | 268 kts | 359° |
| 2026-05-04 19:18 | 45.31459 | 8.51280 | 8296 ft | 261 kts | 29° |
| 2026-05-04 19:18 | 45.32833 | 8.52864 | 7973 ft | 253 kts | 57° |
| 2026-05-04 19:19 | 45.33544 | 8.55081 | 7639 ft | 245 kts | 81° |
| 2026-05-04 19:19 | 45.33868 | 8.57446 | 7297 ft | 243 kts | 82° |
| 2026-05-04 19:19 | 45.34188 | 8.59804 | 6982 ft | 242 kts | 82° |
| 2026-05-04 19:19 | 45.34504 | 8.62120 | 6829 ft | 235 kts | 81° |
| 2026-05-04 19:20 | 45.34815 | 8.64363 | 6708 ft | 227 kts | 81° |
| 2026-05-04 19:20 | 45.35117 | 8.66534 | 6582 ft | 220 kts | 81° |
| 2026-05-04 19:20 | 45.35406 | 8.68637 | 6466 ft | 212 kts | 81° |
| 2026-05-04 19:20 | 45.35678 | 8.70629 | 6348 ft | 199 kts | 81° |
| 2026-05-04 19:21 | 45.35936 | 8.72529 | 6097 ft | 191 kts | 82° |
| 2026-05-04 19:21 | 45.36180 | 8.74317 | 5950 ft | 178 kts | 81° |
| 2026-05-04 19:21 | 45.36411 | 8.76022 | 5668 ft | 175 kts | 82° |
| 2026-05-04 19:21 | 45.36676 | 8.77702 | 5343 ft | 175 kts | 69° |
| 2026-05-04 19:22 | 45.37420 | 8.79063 | 5032 ft | 178 kts | 34° |
| 2026-05-04 19:22 | 45.38568 | 8.79716 | 4777 ft | 179 kts | 9° |
| 2026-05-04 19:22 | 45.39807 | 8.79733 | 4530 ft | 178 kts | 348° |
| 2026-05-04 19:22 | 45.41018 | 8.79401 | 4286 ft | 177 kts | 348° |
| 2026-05-04 19:23 | 45.42226 | 8.79070 | 4059 ft | 176 kts | 347° |
| 2026-05-04 19:23 | 45.43426 | 8.78742 | 3832 ft | 175 kts | 347° |
| 2026-05-04 19:23 | 45.44612 | 8.78417 | 3634 ft | 172 kts | 347° |
| 2026-05-04 19:23 | 45.45775 | 8.78098 | 3444 ft | 169 kts | 348° |
| 2026-05-04 19:24 | 45.46927 | 8.77781 | 3223 ft | 168 kts | 347° |
| 2026-05-04 19:24 | 45.48068 | 8.77468 | 3062 ft | 167 kts | 348° |
| 2026-05-04 19:24 | 45.49207 | 8.77155 | 3005 ft | 166 kts | 348° |
| 2026-05-04 19:24 | 45.50342 | 8.76843 | 2898 ft | 165 kts | 348° |
| 2026-05-04 19:25 | 45.51454 | 8.76538 | 2723 ft | 162 kts | 348° |
| 2026-05-04 19:25 | 45.52552 | 8.76236 | 2520 ft | 160 kts | 349° |
| 2026-05-04 19:25 | 45.53640 | 8.75937 | 2315 ft | 159 kts | 349° |
| 2026-05-04 19:25 | 45.54715 | 8.75641 | 2115 ft | 156 kts | 349° |
| 2026-05-04 19:26 | 45.55776 | 8.75349 | 1897 ft | 154 kts | 349° |
| 2026-05-04 19:26 | 45.56826 | 8.75059 | 1688 ft | 154 kts | 349° |
| 2026-05-04 19:26 | 45.57873 | 8.74771 | 1480 ft | 154 kts | 348° |
| 2026-05-04 19:26 | 45.58924 | 8.74482 | 1278 ft | 154 kts | 348° |
| 2026-05-04 19:27 | 45.59976 | 8.74194 | 1082 ft | 154 kts | 349° |
| 2026-05-04 19:27 | 45.61026 | 8.73900 | 900 ft | 154 kts | 348° |
| 2026-05-04 19:27 | 45.62072 | 8.73608 | 755 ft | 150 kts | 350° |
| 2026-05-04 19:27 | 45.62968 | 8.73364 | 743 ft | 107 kts | 349° |
| 2026-05-04 19:28 | 45.63559 | 8.73201 | 744 ft | 69 kts | 349° |
| 2026-05-04 19:28 | 45.63980 | 8.73086 | 746 ft | 52 kts | 349° |
| 2026-05-04 19:28 | 45.64256 | 8.72997 | 742 ft | 23 kts | 329° |
| 2026-05-04 19:28 | 45.64346 | 8.72829 | 748 ft | 21 kts | 304° |
| 2026-05-04 19:29 | 45.64411 | 8.72693 | 751 ft | 11 kts | 311° |
| 2026-05-04 19:29 | 45.64472 | 8.72628 | 751 ft | 13 kts | 280° |
| 2026-05-04 19:29 | 45.64461 | 8.72528 | 752 ft | 9 kts | 258° |
| 2026-05-04 19:29 | 45.64447 | 8.72427 | 749 ft | 12 kts | 259° |
| 2026-05-04 19:30 | 45.64435 | 8.72333 | 751 ft | 7 kts | 268° |
| 2026-05-04 19:30 | 45.64479 | 8.72293 | 749 ft | 8 kts | 348° |
| 2026-05-04 19:30 | 45.64516 | 8.72283 | 751 ft | 4 kts | 348° |
| 2026-05-04 19:30 | 45.64521 | 8.72281 | 748 ft | 0 kts | 348° |